Time;durP1;ratioP1;P1;durP2;ratioP2;P2;SDS_P1;SDS_P2;PMS_P1;PMS_P2;Temp;Humidity;BMP_temperature;BMP_pressure;BME280_temperature;BME280_humidity;BME280_pressure;Samples;Min_cycle;Max_cycle;Signal;HPM_P1;HPM_P2
2023/04/06 00:01:51;;;;;;;11.77;6.60;;;;;;;4.51;41.12;99297.47;4286846;33;35032;-82
2023/04/06 00:04:19;;;;;;;10.05;6.53;;;;;;;4.51;41.56;99287.22;4285690;33;34414;-82
2023/04/06 00:06:46;;;;;;;10.38;5.93;;;;;;;4.27;42.27;99287.16;4287048;33;33533;-82
2023/04/06 00:09:14;;;;;;;10.70;5.82;;;;;;;4.32;41.90;99291.66;4286553;33;33996;-81
2023/04/06 00:11:42;;;;;;;10.48;5.55;;;;;;;4.46;41.36;99293.88;4286252;33;34350;-81
2023/04/06 00:14:09;;;;;;;11.93;6.07;;;;;;;4.38;41.39;99291.00;4285377;33;33995;-81
2023/04/06 00:16:37;;;;;;;10.02;5.78;;;;;;;4.11;42.72;99288.22;4272662;33;33928;-82
2023/04/06 00:19:04;;;;;;;9.85;5.80;;;;;;;4.27;42.29;99292.28;4279765;33;33937;-82
2023/04/06 00:21:32;;;;;;;11.12;5.15;;;;;;;4.30;41.92;99289.84;4284942;33;34060;-83
2023/04/06 00:23:59;;;;;;;12.07;7.32;;;;;;;4.24;41.79;99280.19;4286746;33;34069;-83
2023/04/06 00:26:27;;;;;;;12.00;5.85;;;;;;;4.02;42.56;99282.75;4285757;33;33433;-83
2023/04/06 00:28:55;;;;;;;12.63;6.47;;;;;;;4.03;41.68;99282.78;4284484;33;32563;-81
2023/04/06 00:31:23;;;;;;;12.80;6.28;;;;;;;4.30;41.15;99280.44;4285216;33;33855;-81
2023/04/06 00:33:51;;;;;;;12.88;6.32;;;;;;;4.21;41.53;99280.09;4272101;33;35072;-81
2023/04/06 00:36:18;;;;;;;12.48;7.37;;;;;;;4.13;42.78;99269.53;4283570;33;33500;-82
2023/04/06 00:38:46;;;;;;;10.85;6.25;;;;;;;4.11;43.29;99272.84;4273430;33;34006;-81
2023/04/06 00:41:13;;;;;;;10.55;6.05;;;;;;;3.94;43.10;99268.69;4273247;33;33623;-81
2023/04/06 00:43:41;;;;;;;12.50;6.45;;;;;;;4.08;42.36;99270.13;4272159;33;35082;-82
2023/04/06 00:46:08;;;;;;;10.05;6.30;;;;;;;4.06;42.47;99266.66;4272482;33;33218;-82
2023/04/06 00:48:36;;;;;;;15.07;7.20;;;;;;;3.82;42.68;99261.37;4272074;33;32766;-80
2023/04/06 00:51:04;;;;;;;13.13;6.72;;;;;;;3.86;43.20;99260.69;4284072;33;34186;-81
2023/04/06 00:53:31;;;;;;;12.60;6.90;;;;;;;3.80;43.11;99263.91;4285438;33;34239;-81
2023/04/06 00:55:59;;;;;;;12.05;6.43;;;;;;;3.81;42.78;99260.53;4272733;33;32686;-82
2023/04/06 00:58:28;;;;;;;14.95;6.62;;;;;;;3.63;43.65;99259.75;4285195;33;33765;-82
2023/04/06 01:01:00;;;;;;;15.00;8.18;;;;;;;3.85;43.53;99261.53;4283748;33;33903;-81
2023/04/06 01:03:28;;;;;;;11.55;6.85;;;;;;;3.77;43.47;99268.91;4284411;33;33835;-81
2023/04/06 01:05:58;;;;;;;12.77;7.47;;;;;;;3.56;43.21;99260.31;4282034;33;33714;-81
2023/04/06 01:08:26;;;;;;;9.52;6.47;;;;;;;3.50;43.24;99263.50;4273336;33;33783;-83
2023/04/06 01:10:54;;;;;;;10.82;7.03;;;;;;;3.58;43.03;99266.38;4273315;33;35135;-80
2023/04/06 01:13:22;;;;;;;11.90;7.18;;;;;;;3.56;43.76;99273.12;4284091;33;34397;-81
2023/04/06 01:15:50;;;;;;;10.48;6.70;;;;;;;3.82;43.06;99271.66;4285589;33;33832;-81
2023/04/06 01:18:25;;;;;;;15.55;7.25;;;;;;;3.54;43.64;99270.50;4284206;33;33763;-81
2023/04/06 01:20:53;;;;;;;12.77;7.37;;;;;;;3.50;43.75;99267.75;4285002;33;34445;-80
2023/04/06 01:23:23;;;;;;;12.15;7.45;;;;;;;3.32;44.40;99271.28;4284653;33;34047;-80
2023/04/06 01:25:51;;;;;;;14.15;7.05;;;;;;;3.25;44.45;99261.56;4284964;33;33541;-82
2023/04/06 01:28:18;;;;;;;13.52;7.85;;;;;;;3.29;43.73;99267.72;4285291;33;34712;-79
2023/04/06 01:30:47;;;;;;;11.60;6.97;;;;;;;3.38;44.01;99263.88;4270940;33;33183;-81
2023/04/06 01:33:14;;;;;;;13.70;6.87;;;;;;;3.21;44.57;99263.94;4271608;33;35029;-81
2023/04/06 01:35:43;;;;;;;13.02;7.53;;;;;;;3.29;44.32;99263.44;4284293;33;33697;-82
2023/04/06 01:38:11;;;;;;;12.95;6.45;;;;;;;3.37;44.18;99267.25;4284441;33;33707;-81
2023/04/06 01:40:38;;;;;;;13.43;7.35;;;;;;;3.43;44.07;99261.50;4283298;33;34211;-83
2023/04/06 01:43:06;;;;;;;15.80;8.23;;;;;;;3.24;44.41;99259.81;4278185;33;34241;-81
2023/04/06 01:45:34;;;;;;;12.50;7.68;;;;;;;3.22;44.27;99261.47;4283221;33;34992;-81
2023/04/06 01:48:03;;;;;;;15.30;7.80;;;;;;;3.29;43.70;99253.19;4281853;33;33716;-80
2023/04/06 01:50:31;;;;;;;12.82;7.87;;;;;;;3.27;43.84;99254.84;4286759;33;34115;-81
2023/04/06 01:52:59;;;;;;;13.98;8.02;;;;;;;3.36;43.57;99255.22;4286728;33;33636;-81
2023/04/06 01:55:26;;;;;;;15.25;7.22;;;;;;;3.34;43.57;99251.72;4286160;33;33721;-81
2023/04/06 01:57:55;;;;;;;14.40;7.22;;;;;;;3.12;43.92;99249.94;4287096;33;34683;-81
2023/04/06 02:00:25;;;;;;;12.37;7.43;;;;;;;3.05;44.08;99247.03;4285866;33;33485;-80
2023/04/06 02:02:53;;;;;;;13.25;8.25;;;;;;;3.11;44.22;99249.88;4286286;33;34982;-80
2023/04/06 02:05:21;;;;;;;12.93;7.68;;;;;;;3.14;44.75;99252.53;4272972;33;33587;-80
2023/04/06 02:07:49;;;;;;;15.52;9.20;;;;;;;3.11;44.92;99252.44;4286206;33;34209;-81
2023/04/06 02:10:18;;;;;;;13.57;8.32;;;;;;;2.80;46.02;99245.06;4287146;33;34620;-82
2023/04/06 02:12:45;;;;;;;16.15;8.88;;;;;;;2.89;45.66;99251.47;4260885;33;34653;-82
2023/04/06 02:15:14;;;;;;;14.40;8.80;;;;;;;2.91;45.21;99243.84;4287915;33;33241;-81
2023/04/06 02:17:42;;;;;;;13.48;8.27;;;;;;;2.82;45.40;99246.91;4286308;33;34755;-81
2023/04/06 02:20:09;;;;;;;13.95;9.55;;;;;;;2.84;46.11;99236.72;4287369;33;34165;-83
2023/04/06 02:22:37;;;;;;;16.05;9.25;;;;;;;2.80;46.22;99235.69;4285758;33;34267;-83
2023/04/06 02:25:05;;;;;;;13.55;8.93;;;;;;;2.72;46.85;99236.16;4286555;33;33420;-82
2023/04/06 02:27:33;;;;;;;16.33;9.57;;;;;;;2.62;47.33;99235.78;4286073;33;33909;-83
2023/04/06 02:30:00;;;;;;;14.02;8.98;;;;;;;2.48;47.58;99230.81;4271523;33;33438;-83
2023/04/06 02:32:28;;;;;;;15.57;8.70;;;;;;;2.37;47.81;99227.78;4286385;33;34842;-83
2023/04/06 02:34:57;;;;;;;14.48;8.00;;;;;;;2.43;47.61;99234.06;4286618;33;34277;-83
2023/04/06 02:37:25;;;;;;;14.87;8.90;;;;;;;2.45;47.58;99231.56;4284654;33;33374;-83
2023/04/06 02:39:55;;;;;;;15.75;9.90;;;;;;;2.38;47.33;99224.41;4287382;33;34126;-84
2023/04/06 02:42:23;;;;;;;16.65;10.18;;;;;;;2.41;47.20;99220.31;4287383;33;34230;-84
2023/04/06 02:44:51;;;;;;;23.77;10.25;;;;;;;2.49;46.96;99223.22;4297817;33;33465;-83
2023/04/06 02:47:20;;;;;;;14.25;8.90;;;;;;;2.52;46.93;99225.91;4291775;33;33909;-83
2023/04/06 02:49:48;;;;;;;17.35;9.32;;;;;;;2.55;46.59;99227.75;4286447;33;34232;-83
2023/04/06 02:52:17;;;;;;;16.95;8.50;;;;;;;2.44;47.24;99230.69;4275349;33;34378;-83
2023/04/06 02:54:45;;;;;;;17.17;9.80;;;;;;;2.56;47.18;99221.81;4273524;33;32290;-82
2023/04/06 02:57:13;;;;;;;15.10;9.18;;;;;;;2.60;47.26;99214.34;4286362;33;33283;-83
2023/04/06 02:59:40;;;;;;;13.95;9.15;;;;;;;2.49;47.76;99212.97;4284781;33;34202;-83
2023/04/06 03:02:08;;;;;;;16.55;8.55;;;;;;;2.34;47.71;99217.41;4271102;33;34781;-82
2023/04/06 03:04:36;;;;;;;16.37;8.07;;;;;;;2.46;47.70;99212.81;4286558;33;33878;-83
2023/04/06 03:07:04;;;;;;;16.15;9.00;;;;;;;2.43;47.82;99217.84;4285770;33;33796;-84
2023/04/06 03:09:32;;;;;;;17.60;8.90;;;;;;;2.47;46.97;99214.59;4286012;33;34101;-83
2023/04/06 03:12:00;;;;;;;15.52;9.55;;;;;;;2.50;47.06;99218.97;4273317;33;33727;-82
2023/04/06 03:14:29;;;;;;;16.80;9.30;;;;;;;2.46;46.78;99211.97;4287296;33;33039;-83
2023/04/06 03:16:57;;;;;;;18.70;9.70;;;;;;;2.43;46.83;99217.84;4286490;33;34724;-84
2023/04/06 03:19:24;;;;;;;15.68;9.40;;;;;;;2.37;46.86;99222.66;4286897;33;34126;-82
2023/04/06 03:21:53;;;;;;;14.95;8.93;;;;;;;2.25;47.50;99215.31;4285773;33;34552;-84
2023/04/06 03:24:21;;;;;;;13.62;7.62;;;;;;;2.42;47.04;99209.28;4286531;33;33153;-83
2023/04/06 03:26:48;;;;;;;13.68;7.90;;;;;;;2.52;47.00;99217.38;4274052;33;33482;-83
2023/04/06 03:29:16;;;;;;;16.35;9.45;;;;;;;2.54;46.99;99220.84;4286523;33;33903;-84
2023/04/06 03:31:44;;;;;;;17.62;9.90;;;;;;;2.65;46.53;99217.09;4286414;33;34767;-83
2023/04/06 03:34:12;;;;;;;18.30;8.85;;;;;;;2.56;46.13;99209.03;4272833;33;34285;-84
2023/04/06 03:36:40;;;;;;;20.12;9.20;;;;;;;2.46;46.92;99223.06;4285556;33;33681;-83
2023/04/06 03:39:07;;;;;;;19.58;9.50;;;;;;;2.39;46.86;99221.94;4286290;33;35001;-83
2023/04/06 03:41:35;;;;;;;16.42;9.27;;;;;;;2.43;46.99;99221.25;4286134;33;34168;-82
2023/04/06 03:44:05;;;;;;;15.90;9.05;;;;;;;2.52;46.86;99214.81;4286260;33;34153;-83
2023/04/06 03:46:32;;;;;;;17.80;8.20;;;;;;;2.37;47.13;99223.53;4284976;33;33941;-81
2023/04/06 03:49:00;;;;;;;18.73;8.98;;;;;;;2.35;46.95;99219.12;4268308;33;34330;-82
2023/04/06 03:51:29;;;;;;;17.85;9.82;;;;;;;2.37;46.85;99220.97;4287372;33;34060;-83
2023/04/06 03:53:56;;;;;;;13.65;9.05;;;;;;;2.46;46.53;99220.50;4286879;33;34399;-81
2023/04/06 03:56:24;;;;;;;17.90;9.18;;;;;;;2.36;46.71;99215.81;4287219;33;34645;-84
2023/04/06 03:58:54;;;;;;;20.00;9.70;;;;;;;2.48;46.59;99223.16;4287153;33;35044;-82
2023/04/06 04:01:21;;;;;;;18.27;10.70;;;;;;;2.39;46.44;99216.81;4286786;33;35303;-83
2023/04/06 04:03:49;;;;;;;15.45;9.15;;;;;;;2.35;46.85;99216.56;4286405;33;33605;-81
2023/04/06 04:06:19;;;;;;;15.73;9.25;;;;;;;2.42;46.59;99216.97;4286942;33;34001;-83
2023/04/06 04:08:47;;;;;;;16.15;9.55;;;;;;;2.54;46.95;99214.09;4286310;33;35123;-83
2023/04/06 04:11:15;;;;;;;20.45;9.68;;;;;;;2.39;47.79;99214.25;4286318;33;33971;-81
2023/04/06 04:13:46;;;;;;;15.88;9.90;;;;;;;2.38;47.68;99209.06;4294280;33;33650;-82
2023/04/06 04:16:13;;;;;;;16.60;9.35;;;;;;;2.32;47.46;99204.53;4286534;33;33855;-82
2023/04/06 04:18:43;;;;;;;17.40;9.40;;;;;;;2.18;47.85;99208.16;4286774;33;34569;-84
2023/04/06 04:21:10;;;;;;;16.27;9.13;;;;;;;2.17;47.73;99212.38;4285294;33;34270;-82
2023/04/06 04:23:38;;;;;;;16.10;10.02;;;;;;;2.11;47.69;99211.22;4285708;33;33209;-82
2023/04/06 04:26:06;;;;;;;15.73;9.85;;;;;;;2.20;47.69;99214.22;4271414;33;33567;-82
2023/04/06 04:28:34;;;;;;;14.23;8.98;;;;;;;2.06;47.53;99210.13;4285932;33;34245;-82
2023/04/06 04:31:02;;;;;;;18.67;9.23;;;;;;;2.32;46.62;99209.66;4284578;33;34238;-82
2023/04/06 04:33:30;;;;;;;17.27;10.43;;;;;;;2.27;46.89;99211.09;4285527;33;33538;-82
2023/04/06 04:35:58;;;;;;;19.05;10.32;;;;;;;2.17;47.15;99207.28;4286062;33;34002;-82
2023/04/06 04:38:26;;;;;;;19.10;9.98;;;;;;;1.89;47.55;99214.44;4283848;33;34010;-82
2023/04/06 04:40:54;;;;;;;18.60;10.00;;;;;;;2.13;47.37;99213.06;4284707;33;35187;-84
2023/04/06 04:43:22;;;;;;;18.05;9.88;;;;;;;1.75;47.73;99206.13;4286144;33;33426;-83
2023/04/06 04:45:50;;;;;;;18.40;10.13;;;;;;;2.24;46.99;99202.44;4286636;33;33137;-83
2023/04/06 04:48:18;;;;;;;23.92;11.85;;;;;;;1.93;48.22;99207.00;4286035;33;35074;-84
2023/04/06 04:50:46;;;;;;;19.42;10.85;;;;;;;2.29;47.25;99204.41;4284543;33;35330;-82
2023/04/06 04:53:14;;;;;;;14.13;9.88;;;;;;;2.47;47.04;99204.38;4301378;28;33844;-82
2023/04/06 04:55:44;;;;;;;18.65;10.50;;;;;;;2.58;47.18;99194.63;4271906;33;33932;-82
2023/04/06 04:58:16;;;;;;;18.80;10.55;;;;;;;2.54;46.76;99191.06;4257905;33;32556;-83
2023/04/06 05:00:45;;;;;;;21.90;10.27;;;;;;;2.12;45.99;99184.81;4267793;33;34001;-83
2023/04/06 05:03:24;;;;;;;19.33;10.27;;;;;;;2.37;45.54;99192.81;4270319;33;34490;-83
2023/04/06 05:05:54;;;;;;;19.10;10.40;;;;;;;1.99;46.15;99183.41;4246212;33;33985;-80
2023/04/06 05:08:23;;;;;;;19.48;10.52;;;;;;;1.96;45.86;99185.81;4269822;33;34263;-82
2023/04/06 05:10:51;;;;;;;19.52;11.38;;;;;;;2.49;45.12;99178.84;4257193;33;33998;-81
2023/04/06 05:13:19;;;;;;;22.80;10.65;;;;;;;2.54;44.94;99177.34;4271213;33;34600;-83
2023/04/06 05:15:47;;;;;;;26.40;12.75;;;;;;;2.82;44.31;99177.75;4270482;33;33590;-81
2023/04/06 05:18:17;;;;;;;22.80;12.15;;;;;;;3.12;43.89;99185.03;4268769;33;34969;-83
2023/04/06 05:20:45;;;;;;;23.02;10.75;;;;;;;2.75;44.61;99187.69;4285873;33;34189;-83
2023/04/06 05:23:13;;;;;;;23.92;12.77;;;;;;;2.54;45.18;99190.16;4271889;33;34385;-82
2023/04/06 05:25:41;;;;;;;21.33;12.48;;;;;;;2.58;45.56;99181.81;4271554;33;34788;-83
2023/04/06 05:28:13;;;;;;;20.20;11.88;;;;;;;2.86;45.11;99183.91;4273239;33;33896;-81
2023/04/06 05:30:42;;;;;;;23.10;12.02;;;;;;;3.17;44.17;99173.28;4260534;33;34359;-82
2023/04/06 05:33:11;;;;;;;22.45;12.37;;;;;;;3.32;42.85;99175.59;4285156;33;32152;-82
2023/04/06 05:35:41;;;;;;;20.65;11.50;;;;;;;3.11;43.24;99168.78;4287776;33;34089;-81
2023/04/06 05:38:12;;;;;;;20.30;11.68;;;;;;;2.80;44.21;99160.56;4270307;33;33268;-82
2023/04/06 05:40:41;;;;;;;18.65;10.88;;;;;;;1.86;46.09;99158.94;4284774;33;34296;-82
2023/04/06 05:43:09;;;;;;;21.42;12.00;;;;;;;2.68;44.58;99163.47;4272922;33;33899;-82
2023/04/06 05:45:38;;;;;;;16.92;11.25;;;;;;;2.41;45.02;99152.91;4285158;33;33661;-82
2023/04/06 05:48:06;;;;;;;22.62;11.57;;;;;;;2.93;43.88;99150.06;4287326;33;33975;-83
2023/04/06 05:50:33;;;;;;;19.33;11.18;;;;;;;2.51;44.43;99161.88;4286102;33;33379;-81
2023/04/06 05:53:01;;;;;;;20.95;11.95;;;;;;;2.76;44.39;99161.25;4283516;33;33702;-83
2023/04/06 05:55:31;;;;;;;18.37;11.18;;;;;;;2.64;44.26;99156.47;4287626;33;33991;-83
2023/04/06 05:58:00;;;;;;;19.75;11.80;;;;;;;2.49;44.92;99156.69;4272217;33;34187;-81
2023/04/06 06:00:28;;;;;;;26.00;13.07;;;;;;;2.23;45.92;99158.06;4286256;33;33891;-83
2023/04/06 06:02:56;;;;;;;22.90;13.23;;;;;;;2.26;46.28;99158.22;4284549;33;34476;-82
2023/04/06 06:05:25;;;;;;;20.55;12.52;;;;;;;2.44;46.67;99146.25;4281187;33;33935;-84
2023/04/06 06:07:54;;;;;;;32.28;18.20;;;;;;;2.64;45.27;99143.69;4280917;33;34787;-82
2023/04/06 06:10:22;;;;;;;26.70;15.55;;;;;;;2.35;46.45;99148.41;4285247;33;33767;-83
2023/04/06 06:12:49;;;;;;;23.20;12.77;;;;;;;2.30;46.49;99144.75;4285653;33;33737;-83
2023/04/06 06:15:17;;;;;;;20.40;12.18;;;;;;;2.26;46.10;99147.97;4284522;33;33583;-82
2023/04/06 06:17:45;;;;;;;22.27;11.57;;;;;;;2.22;45.54;99155.44;4287696;33;35105;-83
2023/04/06 06:20:13;;;;;;;18.12;11.48;;;;;;;1.95;46.99;99156.81;4274452;33;32543;-83
2023/04/06 06:22:43;;;;;;;16.55;10.93;;;;;;;2.32;45.57;99145.72;4274613;33;33849;-82
2023/04/06 06:25:11;;;;;;;20.90;12.20;;;;;;;1.86;46.02;99147.84;4274618;33;34919;-82
2023/04/06 06:27:39;;;;;;;20.17;11.50;;;;;;;2.07;45.71;99130.91;4286994;33;35485;-82
2023/04/06 06:30:07;;;;;;;20.92;11.75;;;;;;;2.76;43.65;99140.78;4287870;33;34595;-82
2023/04/06 06:32:37;;;;;;;20.20;12.82;;;;;;;2.79;44.00;99141.78;4287706;33;33709;-83
2023/04/06 06:35:05;;;;;;;21.10;11.68;;;;;;;2.76;43.77;99139.09;4286199;33;33637;-83
2023/04/06 06:37:33;;;;;;;23.65;11.60;;;;;;;2.53;44.29;99132.09;4286179;33;33869;-84
2023/04/06 06:40:01;;;;;;;20.95;11.73;;;;;;;2.78;43.50;99127.25;4287251;33;34703;-83
2023/04/06 06:42:30;;;;;;;29.05;15.75;;;;;;;2.98;42.27;99128.09;4287723;33;33434;-83
2023/04/06 06:44:59;;;;;;;28.23;14.07;;;;;;;2.67;43.45;99126.78;4287085;33;33802;-82
2023/04/06 06:47:27;;;;;;;22.80;12.82;;;;;;;2.74;43.25;99122.81;4287272;33;33846;-83
2023/04/06 06:49:55;;;;;;;21.73;13.27;;;;;;;3.22;42.11;99128.25;4269296;33;34913;-83
2023/04/06 06:52:23;;;;;;;79.78;31.27;;;;;;;2.85;42.93;99120.72;4283159;33;33359;-84
2023/04/06 06:54:56;;;;;;;25.40;14.52;;;;;;;2.83;43.78;99117.19;4278104;33;34223;-83
2023/04/06 06:57:24;;;;;;;32.67;14.32;;;;;;;3.17;43.31;99122.91;4287909;33;34447;-83
2023/04/06 06:59:52;;;;;;;23.05;13.52;;;;;;;3.42;42.97;99116.22;4287185;33;34851;-83
2023/04/06 07:02:19;;;;;;;22.58;13.80;;;;;;;3.25;42.63;99115.53;4274122;33;34321;-83
2023/04/06 07:04:50;;;;;;;22.77;15.10;;;;;;;3.39;42.21;99116.97;4262161;33;33236;-84
2023/04/06 07:07:18;;;;;;;22.80;13.60;;;;;;;3.42;43.12;99117.09;4286637;33;34074;-84
2023/04/06 07:09:46;;;;;;;20.98;13.62;;;;;;;3.62;41.96;99109.31;4273447;33;33888;-83
2023/04/06 07:12:15;;;;;;;22.60;13.62;;;;;;;3.73;42.33;99109.75;4287422;33;33733;-83
2023/04/06 07:14:43;;;;;;;23.27;13.27;;;;;;;4.29;41.05;99111.88;4287012;33;33863;-83
2023/04/06 07:17:12;;;;;;;18.67;12.77;;;;;;;4.25;40.77;99107.47;4287418;33;34500;-84
2023/04/06 07:19:40;;;;;;;23.87;14.73;;;;;;;4.29;40.12;99098.19;4287249;33;34153;-85
2023/04/06 07:22:08;;;;;;;18.58;12.50;;;;;;;4.47;39.51;99110.78;4273741;33;33824;-84
2023/04/06 07:24:35;;;;;;;19.30;11.82;;;;;;;4.30;39.84;99102.50;4286513;33;33715;-85
2023/04/06 07:27:03;;;;;;;18.42;11.95;;;;;;;4.67;40.42;99107.25;4287202;33;34625;-83
2023/04/06 07:29:31;;;;;;;21.33;12.65;;;;;;;4.27;39.59;99103.25;4287422;33;33715;-83
2023/04/06 07:31:59;;;;;;;21.67;11.20;;;;;;;3.93;41.16;99101.13;4286874;33;34856;-83
2023/04/06 07:34:27;;;;;;;21.10;11.93;;;;;;;3.92;41.23;99108.75;4274548;33;34647;-86
2023/04/06 07:36:56;;;;;;;19.45;11.98;;;;;;;4.47;39.79;99105.66;4287345;33;34036;-86
2023/04/06 07:39:26;;;;;;;18.52;11.77;;;;;;;4.25;40.92;99110.03;4287249;33;34924;-81
2023/04/06 07:41:53;;;;;;;24.83;11.85;;;;;;;4.56;40.18;99106.00;4287615;33;34402;-83
2023/04/06 07:44:21;;;;;;;20.95;12.27;;;;;;;4.31;39.68;99099.97;4287125;33;33983;-85
2023/04/06 07:46:49;;;;;;;22.87;12.77;;;;;;;4.57;39.72;99100.03;4285868;33;33816;-84
2023/04/06 07:49:17;;;;;;;20.90;11.48;;;;;;;4.31;40.09;99092.28;4287326;33;35170;-84
2023/04/06 07:51:46;;;;;;;21.12;10.57;;;;;;;4.58;39.36;99094.97;4287019;33;33370;-84
2023/04/06 07:54:13;;;;;;;22.33;12.27;;;;;;;4.50;39.56;99093.81;4287369;33;33931;-84
2023/04/06 07:56:41;;;;;;;20.85;11.75;;;;;;;4.69;39.61;99090.19;4286771;33;34221;-82
2023/04/06 07:59:11;;;;;;;20.58;11.45;;;;;;;4.97;39.58;99091.16;4286736;33;34220;-84
2023/04/06 08:01:38;;;;;;;18.95;11.20;;;;;;;4.56;39.32;99081.19;4287205;33;34601;-83
2023/04/06 08:04:06;;;;;;;20.45;11.45;;;;;;;4.72;38.46;99086.87;4285563;33;34681;-82
2023/04/06 08:06:36;;;;;;;23.65;12.15;;;;;;;5.18;38.90;99089.28;4281745;33;34146;-81
2023/04/06 08:09:03;;;;;;;19.77;11.75;;;;;;;4.83;38.01;99081.28;4287286;33;33496;-81
2023/04/06 08:11:31;;;;;;;18.42;11.82;;;;;;;5.08;38.71;99087.25;4287172;33;34755;-81
2023/04/06 08:13:58;;;;;;;18.40;11.12;;;;;;;4.98;38.67;99086.06;4286674;33;33771;-81
2023/04/06 08:16:26;;;;;;;18.05;11.80;;;;;;;5.19;38.62;99091.03;4286205;33;35219;-83
2023/04/06 08:18:53;;;;;;;20.17;11.18;;;;;;;4.85;39.06;99083.91;4273662;33;33874;-85
2023/04/06 08:21:21;;;;;;;18.83;12.40;;;;;;;4.92;39.18;99085.84;4286547;33;34470;-83
2023/04/06 08:23:49;;;;;;;15.77;10.70;;;;;;;5.17;38.46;99079.84;4286291;33;34037;-84
2023/04/06 08:26:16;;;;;;;17.58;11.80;;;;;;;5.15;38.94;99091.75;4285451;33;35060;-84
2023/04/06 08:28:44;;;;;;;17.67;11.30;;;;;;;5.26;37.56;99081.81;4283460;33;34794;-84
2023/04/06 08:31:13;;;;;;;20.65;11.93;;;;;;;5.02;38.41;99081.91;4268705;33;34620;-84
2023/04/06 08:33:42;;;;;;;20.45;11.55;;;;;;;4.93;38.94;99079.91;4286710;33;34122;-84
2023/04/06 08:36:14;;;;;;;20.37;12.15;;;;;;;5.13;38.66;99083.12;4272338;33;35344;-86
2023/04/06 08:38:42;;;;;;;20.05;11.75;;;;;;;5.34;38.10;99072.66;4272402;33;33691;-85
2023/04/06 08:41:11;;;;;;;19.70;12.23;;;;;;;5.57;37.38;99068.25;4262859;33;33703;-85
2023/04/06 08:43:43;;;;;;;20.62;11.23;;;;;;;5.15;38.83;99063.47;4272985;33;34011;-84
2023/04/06 08:46:13;;;;;;;14.82;10.02;;;;;;;5.40;38.90;99066.84;4285042;33;34212;-85
2023/04/06 08:48:41;;;;;;;21.83;11.55;;;;;;;5.78;37.51;99056.03;4285508;33;34138;-84
2023/04/06 08:51:09;;;;;;;17.92;11.27;;;;;;;5.75;37.97;99052.50;4272110;33;34232;-84
2023/04/06 08:53:38;;;;;;;17.23;10.73;;;;;;;5.68;36.94;99046.28;4271949;33;34437;-85
2023/04/06 08:56:05;;;;;;;18.15;11.30;;;;;;;6.11;36.18;99049.31;4273114;33;34053;-85
2023/04/06 08:58:35;;;;;;;19.10;12.00;;;;;;;6.39;36.40;99050.94;4287559;33;35044;-86
2023/04/06 09:01:11;;;;;;;18.90;11.35;;;;;;;6.22;37.85;99059.06;4287819;33;33711;-84
2023/04/06 09:03:39;;;;;;;18.05;11.60;;;;;;;6.42;35.51;99044.16;4287739;33;33851;-84
2023/04/06 09:06:09;;;;;;;17.10;10.30;;;;;;;6.21;36.36;99054.75;4281505;33;34906;-85
2023/04/06 09:08:39;;;;;;;19.92;10.68;;;;;;;6.58;36.04;99041.16;4274867;33;34017;-85
2023/04/06 09:11:07;;;;;;;17.33;10.15;;;;;;;6.61;36.09;99037.81;4287750;33;33851;-85
2023/04/06 09:13:47;;;;;;;15.43;9.98;;;;;;;6.85;35.52;99022.09;4273607;33;34779;-86
2023/04/06 09:16:15;;;;;;;16.27;10.15;;;;;;;6.79;36.55;99035.72;4274246;33;33974;-87
2023/04/06 09:18:43;;;;;;;18.87;10.05;;;;;;;6.76;35.11;99021.88;4286417;33;35014;-86
2023/04/06 09:21:10;;;;;;;16.25;9.13;;;;;;;6.45;35.73;99030.50;4273578;33;34921;-86
2023/04/06 09:23:38;;;;;;;14.68;7.93;;;;;;;6.69;35.34;99015.69;4274204;33;33681;-84
2023/04/06 09:26:15;;;;;;;12.70;7.78;;;;;;;7.08;33.20;99014.91;4287470;33;34108;-85
2023/04/06 09:28:43;;;;;;;15.88;8.05;;;;;;;7.03;33.34;99014.81;4262694;33;33445;-83
2023/04/06 09:31:15;;;;;;;15.60;7.47;;;;;;;7.38;33.60;99012.19;4281508;33;33792;-85
2023/04/06 09:33:44;;;;;;;12.27;7.32;;;;;;;7.08;34.58;99009.75;4284122;33;33678;-86
2023/04/06 09:36:15;;;;;;;15.07;8.15;;;;;;;7.57;34.42;99000.59;4274772;33;34050;-84
2023/04/06 09:38:56;;;;;;;12.70;7.72;;;;;;;7.51;32.28;98993.59;4287600;33;34254;-84
2023/04/06 09:41:27;;;;;;;16.15;7.78;;;;;;;6.97;33.61;99000.91;4263034;33;33595;-86
2023/04/06 09:44:02;;;;;;;11.82;7.30;;;;;;;7.07;33.45;99005.47;4274422;33;33981;-85
2023/04/06 09:46:34;;;;;;;17.08;9.18;;;;;;;7.23;32.88;98989.50;4287691;33;34334;-84
2023/04/06 09:49:22;;;;;;;14.32;8.23;;;;;;;7.82;32.10;98991.66;4287727;33;33694;-86
2023/04/06 09:51:57;;;;;;;12.73;7.93;;;;;;;7.69;31.28;98990.56;4274368;33;33861;-86
2023/04/06 09:54:29;;;;;;;25.98;7.87;;;;;;;7.62;32.28;98985.22;4274506;33;34075;-85
2023/04/06 09:57:00;;;;;;;13.88;6.95;;;;;;;7.66;31.67;98993.06;4271700;33;34155;-85
2023/04/06 09:59:40;;;;;;;15.23;8.88;;;;;;;7.62;30.90;98990.38;4286619;33;34079;-87
2023/04/06 10:02:15;;;;;;;14.77;8.18;;;;;;;7.67;32.09;98983.59;4274786;33;34324;-84
2023/04/06 10:04:46;;;;;;;16.90;9.17;;;;;;;8.16;32.46;98987.19;4273161;33;34605;-84
2023/04/06 10:07:15;;;;;;;15.70;8.45;;;;;;;8.26;30.89;98997.72;4266803;33;33943;-86
2023/04/06 10:09:45;;;;;;;17.17;8.98;;;;;;;7.82;31.99;98981.34;4287107;33;34729;-87
2023/04/06 10:12:13;;;;;;;19.95;9.23;;;;;;;8.14;31.67;98981.09;4274832;33;33456;-87
2023/04/06 10:14:41;;;;;;;19.77;7.70;;;;;;;8.01;31.25;98978.28;4287883;33;33964;-85
2023/04/06 10:17:08;;;;;;;12.60;7.15;;;;;;;8.05;32.06;98977.50;4274186;33;34058;-86
2023/04/06 10:19:46;;;;;;;16.55;8.90;;;;;;;8.26;31.53;98984.81;4287404;33;34310;-85
2023/04/06 10:22:20;;;;;;;13.52;7.75;;;;;;;8.21;29.81;98972.63;4281899;33;34425;-87
2023/04/06 10:24:48;;;;;;;12.73;7.72;;;;;;;8.02;30.67;98974.00;4274573;33;33791;-85
2023/04/06 10:27:15;;;;;;;16.02;7.50;;;;;;;8.17;31.17;98963.97;4262694;33;33984;-86
2023/04/06 10:29:48;;;;;;;12.52;8.23;;;;;;;8.47;31.09;98960.25;4273984;33;35249;-90
2023/04/06 10:32:17;;;;;;;13.25;8.68;;;;;;;8.51;29.50;98962.03;4287735;33;34624;-85
2023/04/06 10:34:44;;;;;;;11.30;6.68;;;;;;;8.56;30.67;98959.53;4287576;33;34536;-85
2023/04/06 10:37:16;;;;;;;12.73;6.82;;;;;;;8.58;29.58;98958.72;4287794;33;33744;-84
2023/04/06 10:39:58;;;;;;;13.80;8.45;;;;;;;8.51;28.90;98962.03;4280539;33;34279;-83
2023/04/06 10:42:37;;;;;;;14.40;7.35;;;;;;;8.10;29.05;98959.53;4286583;33;33953;-86
2023/04/06 10:45:19;;;;;;;11.90;7.70;;;;;;;8.23;30.27;98961.50;4274531;33;34603;-84
2023/04/06 10:47:46;;;;;;;11.98;6.97;;;;;;;8.65;28.66;98954.53;4286845;33;33615;-84
2023/04/06 10:50:16;;;;;;;11.95;7.40;;;;;;;8.58;30.04;98956.13;4273932;33;34095;-86
2023/04/06 10:52:45;;;;;;;13.77;7.68;;;;;;;8.73;28.87;98943.47;4286275;33;33289;-84
2023/04/06 10:55:14;;;;;;;14.00;7.15;;;;;;;8.66;28.98;98941.63;4285508;33;33773;-86
2023/04/06 10:57:42;;;;;;;15.32;7.70;;;;;;;8.67;30.44;98943.34;4285990;33;35095;-87
2023/04/06 11:00:11;;;;;;;13.02;7.05;;;;;;;8.98;29.98;98938.69;4271413;33;34953;-85
2023/04/06 11:02:39;;;;;;;11.18;7.03;;;;;;;9.31;29.88;98935.72;4273531;33;34185;-84
2023/04/06 11:05:07;;;;;;;14.02;7.25;;;;;;;8.74;30.13;98936.59;4273884;33;33785;-85
2023/04/06 11:07:35;;;;;;;12.65;7.40;;;;;;;8.80;31.09;98928.06;4273365;33;35141;-85
2023/04/06 11:10:02;;;;;;;11.02;7.07;;;;;;;8.85;30.88;98931.59;4287528;33;34007;-84
2023/04/06 11:12:44;;;;;;;16.50;8.38;;;;;;;9.11;30.10;98932.84;4286721;33;33775;-83
2023/04/06 11:15:12;;;;;;;17.23;8.80;;;;;;;9.59;29.72;98936.13;4284266;33;34429;-85
2023/04/06 11:17:39;;;;;;;13.40;8.38;;;;;;;9.24;30.67;98937.38;4264461;33;33858;-84
2023/04/06 11:20:10;;;;;;;14.80;8.35;;;;;;;8.96;30.81;98930.91;4254395;33;34319;-86
2023/04/06 11:22:50;;;;;;;13.88;8.65;;;;;;;8.50;31.78;98930.16;4273169;33;34656;-87
2023/04/06 11:25:18;;;;;;;15.80;7.65;;;;;;;9.01;30.71;98936.13;4269879;33;34856;-85
2023/04/06 11:27:46;;;;;;;14.98;8.43;;;;;;;9.26;30.60;98933.06;4279082;33;34976;-85
2023/04/06 11:30:14;;;;;;;14.10;9.68;;;;;;;9.15;31.05;98929.47;4287091;33;34125;-85
2023/04/06 11:32:44;;;;;;;16.85;8.10;;;;;;;9.31;30.96;98934.84;4287309;33;33823;-87
2023/04/06 11:35:19;;;;;;;15.68;8.50;;;;;;;9.37;32.13;98934.94;4282106;33;33921;-87
2023/04/06 11:37:51;;;;;;;13.48;8.02;;;;;;;8.97;31.71;98926.59;4281599;33;34564;-87